sensor_id;sensor_type;location;lat;lon;timestamp;P1;durP1;ratioP1;P2;durP2;ratioP2
16506;SDS011;8366;51.020;7.642;2024-01-30T00:00:04;18.77;;;13.47;;
16506;SDS011;8366;51.020;7.642;2024-01-30T00:02:34;18.57;;;13.43;;
16506;SDS011;8366;51.020;7.642;2024-01-30T00:05:00;20.57;;;13.70;;
16506;SDS011;8366;51.020;7.642;2024-01-30T00:07:28;20.23;;;13.53;;
16506;SDS011;8366;51.020;7.642;2024-01-30T00:09:55;21.07;;;13.50;;
16506;SDS011;8366;51.020;7.642;2024-01-30T00:12:21;21.63;;;13.70;;
16506;SDS011;8366;51.020;7.642;2024-01-30T00:14:48;19.03;;;13.63;;
16506;SDS011;8366;51.020;7.642;2024-01-30T00:17:14;19.27;;;12.67;;
16506;SDS011;8366;51.020;7.642;2024-01-30T00:19:42;17.83;;;13.00;;
16506;SDS011;8366;51.020;7.642;2024-01-30T00:22:09;21.80;;;13.47;;
16506;SDS011;8366;51.020;7.642;2024-01-30T00:24:36;19.97;;;13.23;;
16506;SDS011;8366;51.020;7.642;2024-01-30T00:27:03;17.97;;;12.87;;
16506;SDS011;8366;51.020;7.642;2024-01-30T00:29:29;20.03;;;13.60;;
16506;SDS011;8366;51.020;7.642;2024-01-30T00:31:58;20.03;;;13.37;;
16506;SDS011;8366;51.020;7.642;2024-01-30T00:34:25;20.57;;;12.97;;
16506;SDS011;8366;51.020;7.642;2024-01-30T00:36:53;18.30;;;12.50;;
16506;SDS011;8366;51.020;7.642;2024-01-30T00:39:19;17.53;;;12.83;;
16506;SDS011;8366;51.020;7.642;2024-01-30T00:41:46;21.23;;;13.20;;
16506;SDS011;8366;51.020;7.642;2024-01-30T00:44:12;20.50;;;13.23;;
16506;SDS011;8366;51.020;7.642;2024-01-30T00:46:39;17.63;;;11.70;;
16506;SDS011;8366;51.020;7.642;2024-01-30T00:49:05;18.73;;;12.37;;
16506;SDS011;8366;51.020;7.642;2024-01-30T00:51:32;19.97;;;12.67;;
16506;SDS011;8366;51.020;7.642;2024-01-30T00:54:00;20.70;;;12.80;;
16506;SDS011;8366;51.020;7.642;2024-01-30T00:56:26;18.73;;;12.63;;
16506;SDS011;8366;51.020;7.642;2024-01-30T00:58:53;22.07;;;13.63;;
16506;SDS011;8366;51.020;7.642;2024-01-30T01:01:20;18.43;;;12.17;;
16506;SDS011;8366;51.020;7.642;2024-01-30T01:03:47;18.13;;;12.13;;
16506;SDS011;8366;51.020;7.642;2024-01-30T01:06:13;18.43;;;12.00;;
16506;SDS011;8366;51.020;7.642;2024-01-30T01:08:40;17.27;;;11.67;;
16506;SDS011;8366;51.020;7.642;2024-01-30T01:11:08;18.97;;;11.50;;
16506;SDS011;8366;51.020;7.642;2024-01-30T01:13:34;20.80;;;12.17;;
16506;SDS011;8366;51.020;7.642;2024-01-30T01:16:01;16.23;;;11.20;;
16506;SDS011;8366;51.020;7.642;2024-01-30T01:18:28;17.40;;;11.87;;
16506;SDS011;8366;51.020;7.642;2024-01-30T01:20:55;18.47;;;11.67;;
16506;SDS011;8366;51.020;7.642;2024-01-30T01:23:21;18.73;;;12.30;;
16506;SDS011;8366;51.020;7.642;2024-01-30T01:25:48;14.83;;;11.10;;
16506;SDS011;8366;51.020;7.642;2024-01-30T01:28:16;17.00;;;11.80;;
16506;SDS011;8366;51.020;7.642;2024-01-30T01:30:43;18.67;;;12.47;;
16506;SDS011;8366;51.020;7.642;2024-01-30T01:33:10;16.93;;;11.20;;
16506;SDS011;8366;51.020;7.642;2024-01-30T01:35:39;19.33;;;12.07;;
16506;SDS011;8366;51.020;7.642;2024-01-30T01:38:05;19.00;;;11.90;;
16506;SDS011;8366;51.020;7.642;2024-01-30T01:40:32;14.87;;;11.60;;
16506;SDS011;8366;51.020;7.642;2024-01-30T01:42:58;15.93;;;11.50;;
16506;SDS011;8366;51.020;7.642;2024-01-30T01:45:27;16.07;;;10.70;;
16506;SDS011;8366;51.020;7.642;2024-01-30T01:47:53;15.70;;;10.93;;
16506;SDS011;8366;51.020;7.642;2024-01-30T01:50:21;20.53;;;11.40;;
16506;SDS011;8366;51.020;7.642;2024-01-30T01:52:47;15.43;;;10.83;;
16506;SDS011;8366;51.020;7.642;2024-01-30T01:55:14;19.47;;;11.33;;
16506;SDS011;8366;51.020;7.642;2024-01-30T01:57:42;14.97;;;10.83;;
16506;SDS011;8366;51.020;7.642;2024-01-30T02:00:09;15.53;;;10.57;;
16506;SDS011;8366;51.020;7.642;2024-01-30T02:02:38;14.83;;;10.33;;
16506;SDS011;8366;51.020;7.642;2024-01-30T02:05:05;14.50;;;10.03;;
16506;SDS011;8366;51.020;7.642;2024-01-30T02:07:32;16.13;;;10.13;;
16506;SDS011;8366;51.020;7.642;2024-01-30T02:09:58;15.13;;;10.03;;
16506;SDS011;8366;51.020;7.642;2024-01-30T02:12:25;15.27;;;9.83;;
16506;SDS011;8366;51.020;7.642;2024-01-30T02:14:52;15.30;;;10.10;;
16506;SDS011;8366;51.020;7.642;2024-01-30T02:17:19;15.30;;;10.27;;
16506;SDS011;8366;51.020;7.642;2024-01-30T02:19:49;15.00;;;10.10;;
16506;SDS011;8366;51.020;7.642;2024-01-30T02:22:17;13.77;;;9.23;;
16506;SDS011;8366;51.020;7.642;2024-01-30T02:24:44;16.47;;;10.17;;
16506;SDS011;8366;51.020;7.642;2024-01-30T02:27:11;18.47;;;10.37;;
16506;SDS011;8366;51.020;7.642;2024-01-30T02:29:37;18.10;;;10.53;;
16506;SDS011;8366;51.020;7.642;2024-01-30T02:32:04;13.90;;;9.70;;
16506;SDS011;8366;51.020;7.642;2024-01-30T02:34:32;14.67;;;9.80;;
16506;SDS011;8366;51.020;7.642;2024-01-30T02:36:59;15.33;;;10.67;;
16506;SDS011;8366;51.020;7.642;2024-01-30T02:39:27;13.43;;;9.60;;
16506;SDS011;8366;51.020;7.642;2024-01-30T02:41:54;14.90;;;10.40;;
16506;SDS011;8366;51.020;7.642;2024-01-30T02:44:21;14.20;;;9.70;;
16506;SDS011;8366;51.020;7.642;2024-01-30T02:46:48;14.23;;;9.33;;
16506;SDS011;8366;51.020;7.642;2024-01-30T02:49:14;12.57;;;8.63;;
16506;SDS011;8366;51.020;7.642;2024-01-30T02:51:41;12.70;;;8.77;;
16506;SDS011;8366;51.020;7.642;2024-01-30T02:54:08;15.67;;;9.83;;
16506;SDS011;8366;51.020;7.642;2024-01-30T02:56:36;13.23;;;8.77;;
16506;SDS011;8366;51.020;7.642;2024-01-30T02:59:02;13.93;;;9.53;;
16506;SDS011;8366;51.020;7.642;2024-01-30T03:01:29;15.70;;;9.63;;
16506;SDS011;8366;51.020;7.642;2024-01-30T03:03:56;14.00;;;9.30;;
16506;SDS011;8366;51.020;7.642;2024-01-30T03:06:23;13.80;;;9.27;;
16506;SDS011;8366;51.020;7.642;2024-01-30T03:08:49;13.47;;;8.83;;
16506;SDS011;8366;51.020;7.642;2024-01-30T03:11:16;15.70;;;9.53;;
16506;SDS011;8366;51.020;7.642;2024-01-30T03:13:44;12.37;;;9.00;;
16506;SDS011;8366;51.020;7.642;2024-01-30T03:16:10;12.37;;;8.63;;
16506;SDS011;8366;51.020;7.642;2024-01-30T03:18:37;14.57;;;8.97;;
16506;SDS011;8366;51.020;7.642;2024-01-30T03:21:18;12.97;;;8.13;;
16506;SDS011;8366;51.020;7.642;2024-01-30T03:23:44;12.67;;;8.63;;
16506;SDS011;8366;51.020;7.642;2024-01-30T03:26:11;14.07;;;9.13;;
16506;SDS011;8366;51.020;7.642;2024-01-30T03:28:38;13.37;;;8.60;;
16506;SDS011;8366;51.020;7.642;2024-01-30T03:31:06;15.33;;;9.10;;
16506;SDS011;8366;51.020;7.642;2024-01-30T03:33:32;12.20;;;8.37;;
16506;SDS011;8366;51.020;7.642;2024-01-30T03:36:02;11.97;;;8.30;;
16506;SDS011;8366;51.020;7.642;2024-01-30T03:38:29;13.37;;;8.77;;
16506;SDS011;8366;51.020;7.642;2024-01-30T03:40:57;13.60;;;8.40;;
16506;SDS011;8366;51.020;7.642;2024-01-30T03:43:24;14.40;;;8.80;;
16506;SDS011;8366;51.020;7.642;2024-01-30T03:45:51;12.00;;;7.63;;
16506;SDS011;8366;51.020;7.642;2024-01-30T03:48:19;12.80;;;8.73;;
16506;SDS011;8366;51.020;7.642;2024-01-30T03:50:47;11.20;;;7.93;;
16506;SDS011;8366;51.020;7.642;2024-01-30T03:53:13;11.73;;;8.20;;
16506;SDS011;8366;51.020;7.642;2024-01-30T03:55:40;14.13;;;8.43;;
16506;SDS011;8366;51.020;7.642;2024-01-30T03:58:06;14.23;;;8.30;;
16506;SDS011;8366;51.020;7.642;2024-01-30T04:00:33;11.43;;;8.30;;
16506;SDS011;8366;51.020;7.642;2024-01-30T04:03:00;10.97;;;8.50;;
16506;SDS011;8366;51.020;7.642;2024-01-30T04:05:28;12.97;;;9.20;;
16506;SDS011;8366;51.020;7.642;2024-01-30T04:07:54;14.60;;;10.10;;
16506;SDS011;8366;51.020;7.642;2024-01-30T04:10:21;15.70;;;8.47;;
16506;SDS011;8366;51.020;7.642;2024-01-30T04:12:48;12.43;;;8.30;;
16506;SDS011;8366;51.020;7.642;2024-01-30T04:15:14;11.30;;;7.83;;
16506;SDS011;8366;51.020;7.642;2024-01-30T04:17:41;13.07;;;8.17;;
16506;SDS011;8366;51.020;7.642;2024-01-30T04:20:09;13.67;;;8.67;;
16506;SDS011;8366;51.020;7.642;2024-01-30T04:22:40;9.97;;;7.40;;
16506;SDS011;8366;51.020;7.642;2024-01-30T04:25:07;13.53;;;8.37;;
16506;SDS011;8366;51.020;7.642;2024-01-30T04:27:34;12.60;;;8.60;;
16506;SDS011;8366;51.020;7.642;2024-01-30T04:30:00;10.93;;;7.67;;
16506;SDS011;8366;51.020;7.642;2024-01-30T04:32:27;12.50;;;8.13;;
16506;SDS011;8366;51.020;7.642;2024-01-30T04:34:53;12.50;;;8.17;;
16506;SDS011;8366;51.020;7.642;2024-01-30T04:37:20;13.43;;;8.37;;
16506;SDS011;8366;51.020;7.642;2024-01-30T04:39:48;12.07;;;7.70;;
16506;SDS011;8366;51.020;7.642;2024-01-30T04:42:14;11.60;;;8.23;;
16506;SDS011;8366;51.020;7.642;2024-01-30T04:44:41;12.20;;;7.83;;
16506;SDS011;8366;51.020;7.642;2024-01-30T04:47:07;12.37;;;8.33;;
16506;SDS011;8366;51.020;7.642;2024-01-30T04:49:36;14.00;;;8.33;;
16506;SDS011;8366;51.020;7.642;2024-01-30T04:52:02;14.30;;;8.60;;
16506;SDS011;8366;51.020;7.642;2024-01-30T04:54:29;12.50;;;8.53;;
16506;SDS011;8366;51.020;7.642;2024-01-30T04:56:57;12.73;;;7.93;;
16506;SDS011;8366;51.020;7.642;2024-01-30T04:59:24;10.87;;;8.03;;
16506;SDS011;8366;51.020;7.642;2024-01-30T05:01:51;13.33;;;9.10;;
16506;SDS011;8366;51.020;7.642;2024-01-30T05:04:17;11.77;;;8.93;;
16506;SDS011;8366;51.020;7.642;2024-01-30T05:06:43;15.70;;;9.20;;
16506;SDS011;8366;51.020;7.642;2024-01-30T05:09:10;15.03;;;9.03;;
16506;SDS011;8366;51.020;7.642;2024-01-30T05:11:37;17.77;;;11.07;;
16506;SDS011;8366;51.020;7.642;2024-01-30T05:14:05;16.70;;;10.73;;
16506;SDS011;8366;51.020;7.642;2024-01-30T05:16:32;16.30;;;10.43;;
16506;SDS011;8366;51.020;7.642;2024-01-30T05:18:58;20.93;;;11.10;;
16506;SDS011;8366;51.020;7.642;2024-01-30T05:21:25;18.47;;;10.07;;
16506;SDS011;8366;51.020;7.642;2024-01-30T05:23:51;21.17;;;11.63;;
16506;SDS011;8366;51.020;7.642;2024-01-30T05:26:18;28.87;;;15.27;;
16506;SDS011;8366;51.020;7.642;2024-01-30T05:28:44;24.13;;;13.07;;
16506;SDS011;8366;51.020;7.642;2024-01-30T05:31:12;20.93;;;12.20;;
16506;SDS011;8366;51.020;7.642;2024-01-30T05:33:39;23.07;;;13.77;;
16506;SDS011;8366;51.020;7.642;2024-01-30T05:36:06;25.60;;;15.50;;
16506;SDS011;8366;51.020;7.642;2024-01-30T05:38:33;26.80;;;16.00;;
16506;SDS011;8366;51.020;7.642;2024-01-30T05:40:59;27.63;;;16.70;;
16506;SDS011;8366;51.020;7.642;2024-01-30T05:43:26;23.00;;;12.67;;
16506;SDS011;8366;51.020;7.642;2024-01-30T05:45:52;24.10;;;14.43;;
16506;SDS011;8366;51.020;7.642;2024-01-30T05:48:20;23.40;;;13.73;;
16506;SDS011;8366;51.020;7.642;2024-01-30T05:50:46;19.93;;;12.07;;
16506;SDS011;8366;51.020;7.642;2024-01-30T05:53:13;17.40;;;11.43;;
16506;SDS011;8366;51.020;7.642;2024-01-30T05:55:39;19.43;;;11.83;;
16506;SDS011;8366;51.020;7.642;2024-01-30T05:58:06;17.57;;;10.77;;
16506;SDS011;8366;51.020;7.642;2024-01-30T06:00:32;18.03;;;11.73;;
16506;SDS011;8366;51.020;7.642;2024-01-30T06:02:59;17.73;;;11.17;;
16506;SDS011;8366;51.020;7.642;2024-01-30T06:05:27;17.17;;;11.00;;
16506;SDS011;8366;51.020;7.642;2024-01-30T06:07:53;15.83;;;10.87;;
16506;SDS011;8366;51.020;7.642;2024-01-30T06:10:20;16.17;;;10.53;;
16506;SDS011;8366;51.020;7.642;2024-01-30T06:12:46;17.80;;;10.13;;
16506;SDS011;8366;51.020;7.642;2024-01-30T06:15:13;15.60;;;10.00;;
16506;SDS011;8366;51.020;7.642;2024-01-30T06:17:40;16.63;;;10.33;;
16506;SDS011;8366;51.020;7.642;2024-01-30T06:20:06;16.20;;;10.23;;
16506;SDS011;8366;51.020;7.642;2024-01-30T06:22:34;16.07;;;9.77;;
16506;SDS011;8366;51.020;7.642;2024-01-30T06:25:01;16.97;;;10.30;;
16506;SDS011;8366;51.020;7.642;2024-01-30T06:27:28;15.63;;;10.27;;
16506;SDS011;8366;51.020;7.642;2024-01-30T06:29:54;16.53;;;10.43;;
16506;SDS011;8366;51.020;7.642;2024-01-30T06:32:21;16.20;;;11.10;;
16506;SDS011;8366;51.020;7.642;2024-01-30T06:34:47;17.17;;;10.90;;
16506;SDS011;8366;51.020;7.642;2024-01-30T06:37:14;17.30;;;10.83;;
16506;SDS011;8366;51.020;7.642;2024-01-30T06:39:44;17.10;;;10.70;;
16506;SDS011;8366;51.020;7.642;2024-01-30T06:42:10;16.33;;;10.67;;
16506;SDS011;8366;51.020;7.642;2024-01-30T06:44:37;17.13;;;10.57;;
16506;SDS011;8366;51.020;7.642;2024-01-30T06:47:03;17.40;;;10.70;;
16506;SDS011;8366;51.020;7.642;2024-01-30T06:49:30;17.77;;;10.60;;
16506;SDS011;8366;51.020;7.642;2024-01-30T06:51:57;14.40;;;10.03;;
16506;SDS011;8366;51.020;7.642;2024-01-30T06:54:23;14.53;;;9.83;;
16506;SDS011;8366;51.020;7.642;2024-01-30T06:56:51;15.50;;;9.00;;
16506;SDS011;8366;51.020;7.642;2024-01-30T06:59:18;14.97;;;9.60;;
16506;SDS011;8366;51.020;7.642;2024-01-30T07:01:44;14.70;;;9.60;;
16506;SDS011;8366;51.020;7.642;2024-01-30T07:04:10;16.13;;;10.30;;
16506;SDS011;8366;51.020;7.642;2024-01-30T07:06:37;14.90;;;9.77;;
16506;SDS011;8366;51.020;7.642;2024-01-30T07:09:03;15.53;;;9.70;;
16506;SDS011;8366;51.020;7.642;2024-01-30T07:11:30;15.83;;;9.67;;
16506;SDS011;8366;51.020;7.642;2024-01-30T07:13:58;14.23;;;9.60;;
16506;SDS011;8366;51.020;7.642;2024-01-30T07:16:25;15.17;;;10.03;;
16506;SDS011;8366;51.020;7.642;2024-01-30T07:18:51;14.33;;;9.57;;
16506;SDS011;8366;51.020;7.642;2024-01-30T07:21:19;18.13;;;12.37;;
16506;SDS011;8366;51.020;7.642;2024-01-30T07:23:46;28.30;;;16.17;;
16506;SDS011;8366;51.020;7.642;2024-01-30T07:26:13;18.40;;;12.33;;
16506;SDS011;8366;51.020;7.642;2024-01-30T07:28:39;16.63;;;12.17;;
16506;SDS011;8366;51.020;7.642;2024-01-30T07:31:07;19.07;;;13.20;;
16506;SDS011;8366;51.020;7.642;2024-01-30T07:33:34;20.87;;;13.97;;
16506;SDS011;8366;51.020;7.642;2024-01-30T07:36:01;18.50;;;12.33;;
16506;SDS011;8366;51.020;7.642;2024-01-30T07:38:27;18.63;;;12.23;;
16506;SDS011;8366;51.020;7.642;2024-01-30T07:40:54;18.90;;;12.10;;
16506;SDS011;8366;51.020;7.642;2024-01-30T07:43:20;18.23;;;11.53;;
16506;SDS011;8366;51.020;7.642;2024-01-30T07:45:47;16.30;;;11.57;;
16506;SDS011;8366;51.020;7.642;2024-01-30T07:48:15;16.23;;;11.80;;
16506;SDS011;8366;51.020;7.642;2024-01-30T07:50:42;20.00;;;12.13;;
16506;SDS011;8366;51.020;7.642;2024-01-30T07:53:08;19.90;;;12.43;;
16506;SDS011;8366;51.020;7.642;2024-01-30T07:55:35;19.23;;;12.67;;
16506;SDS011;8366;51.020;7.642;2024-01-30T07:58:01;21.40;;;14.40;;
16506;SDS011;8366;51.020;7.642;2024-01-30T08:00:29;19.50;;;12.20;;
16506;SDS011;8366;51.020;7.642;2024-01-30T08:02:56;21.10;;;13.50;;
16506;SDS011;8366;51.020;7.642;2024-01-30T08:05:25;19.00;;;13.07;;
16506;SDS011;8366;51.020;7.642;2024-01-30T08:07:51;23.27;;;12.70;;
16506;SDS011;8366;51.020;7.642;2024-01-30T08:10:18;20.83;;;12.80;;
16506;SDS011;8366;51.020;7.642;2024-01-30T08:12:44;20.10;;;13.53;;
16506;SDS011;8366;51.020;7.642;2024-01-30T08:15:11;21.07;;;13.53;;
16506;SDS011;8366;51.020;7.642;2024-01-30T08:17:38;19.73;;;13.20;;
16506;SDS011;8366;51.020;7.642;2024-01-30T08:20:05;19.40;;;12.93;;
16506;SDS011;8366;51.020;7.642;2024-01-30T08:22:34;21.77;;;14.13;;
16506;SDS011;8366;51.020;7.642;2024-01-30T08:25:01;18.83;;;12.80;;
16506;SDS011;8366;51.020;7.642;2024-01-30T08:27:27;19.97;;;12.73;;
16506;SDS011;8366;51.020;7.642;2024-01-30T08:29:54;19.23;;;12.77;;
16506;SDS011;8366;51.020;7.642;2024-01-30T08:32:20;21.27;;;13.13;;
16506;SDS011;8366;51.020;7.642;2024-01-30T08:34:46;21.87;;;13.27;;
16506;SDS011;8366;51.020;7.642;2024-01-30T08:37:13;24.20;;;15.57;;
16506;SDS011;8366;51.020;7.642;2024-01-30T08:39:42;23.03;;;14.67;;
16506;SDS011;8366;51.020;7.642;2024-01-30T08:42:09;25.03;;;15.10;;
16506;SDS011;8366;51.020;7.642;2024-01-30T08:44:35;22.03;;;14.77;;
16506;SDS011;8366;51.020;7.642;2024-01-30T08:47:02;22.23;;;14.73;;
16506;SDS011;8366;51.020;7.642;2024-01-30T08:49:29;24.90;;;14.57;;
16506;SDS011;8366;51.020;7.642;2024-01-30T08:51:55;22.93;;;14.50;;
16506;SDS011;8366;51.020;7.642;2024-01-30T08:54:22;23.93;;;14.73;;
16506;SDS011;8366;51.020;7.642;2024-01-30T08:56:50;20.90;;;13.80;;
16506;SDS011;8366;51.020;7.642;2024-01-30T08:59:18;19.57;;;13.50;;
16506;SDS011;8366;51.020;7.642;2024-01-30T09:01:44;24.67;;;14.53;;
16506;SDS011;8366;51.020;7.642;2024-01-30T09:04:12;21.47;;;14.20;;
16506;SDS011;8366;51.020;7.642;2024-01-30T09:06:38;25.60;;;14.87;;
16506;SDS011;8366;51.020;7.642;2024-01-30T09:09:04;21.60;;;14.70;;
16506;SDS011;8366;51.020;7.642;2024-01-30T09:11:31;24.53;;;15.50;;
16506;SDS011;8366;51.020;7.642;2024-01-30T09:13:59;22.07;;;15.07;;
16506;SDS011;8366;51.020;7.642;2024-01-30T09:16:25;24.40;;;16.37;;
16506;SDS011;8366;51.020;7.642;2024-01-30T09:18:52;25.87;;;15.93;;
16506;SDS011;8366;51.020;7.642;2024-01-30T09:21:18;23.03;;;15.43;;
16506;SDS011;8366;51.020;7.642;2024-01-30T09:23:44;25.40;;;16.77;;
16506;SDS011;8366;51.020;7.642;2024-01-30T09:26:11;23.47;;;14.23;;
16506;SDS011;8366;51.020;7.642;2024-01-30T09:28:38;21.50;;;14.60;;
16506;SDS011;8366;51.020;7.642;2024-01-30T09:31:10;20.07;;;14.40;;
16506;SDS011;8366;51.020;7.642;2024-01-30T09:33:37;23.00;;;15.77;;
16506;SDS011;8366;51.020;7.642;2024-01-30T09:36:04;22.77;;;15.80;;
16506;SDS011;8366;51.020;7.642;2024-01-30T09:38:32;23.97;;;16.23;;
16506;SDS011;8366;51.020;7.642;2024-01-30T09:40:59;28.13;;;17.63;;
16506;SDS011;8366;51.020;7.642;2024-01-30T09:43:30;26.33;;;16.80;;
16506;SDS011;8366;51.020;7.642;2024-01-30T09:45:59;24.83;;;16.93;;
16506;SDS011;8366;51.020;7.642;2024-01-30T09:48:27;26.10;;;18.20;;
16506;SDS011;8366;51.020;7.642;2024-01-30T09:50:54;29.27;;;19.00;;
16506;SDS011;8366;51.020;7.642;2024-01-30T09:53:21;38.07;;;22.93;;
16506;SDS011;8366;51.020;7.642;2024-01-30T09:55:48;27.03;;;19.43;;
16506;SDS011;8366;51.020;7.642;2024-01-30T09:58:16;33.67;;;20.53;;
16506;SDS011;8366;51.020;7.642;2024-01-30T10:00:43;29.87;;;18.47;;
16506;SDS011;8366;51.020;7.642;2024-01-30T10:03:09;25.10;;;17.07;;
16506;SDS011;8366;51.020;7.642;2024-01-30T10:05:37;23.77;;;17.13;;
16506;SDS011;8366;51.020;7.642;2024-01-30T10:08:06;27.07;;;16.97;;
16506;SDS011;8366;51.020;7.642;2024-01-30T10:10:34;26.70;;;17.80;;
16506;SDS011;8366;51.020;7.642;2024-01-30T10:13:00;28.87;;;19.07;;
16506;SDS011;8366;51.020;7.642;2024-01-30T10:15:31;27.80;;;17.73;;
16506;SDS011;8366;51.020;7.642;2024-01-30T10:18:00;30.43;;;19.33;;
16506;SDS011;8366;51.020;7.642;2024-01-30T10:20:27;37.20;;;21.03;;
16506;SDS011;8366;51.020;7.642;2024-01-30T10:22:55;28.43;;;19.27;;
16506;SDS011;8366;51.020;7.642;2024-01-30T10:25:22;32.47;;;20.67;;
16506;SDS011;8366;51.020;7.642;2024-01-30T10:27:52;34.17;;;19.87;;
16506;SDS011;8366;51.020;7.642;2024-01-30T10:30:19;32.40;;;19.30;;
16506;SDS011;8366;51.020;7.642;2024-01-30T10:32:45;31.17;;;19.67;;
16506;SDS011;8366;51.020;7.642;2024-01-30T10:35:12;32.47;;;20.03;;
16506;SDS011;8366;51.020;7.642;2024-01-30T10:37:38;27.50;;;18.57;;
16506;SDS011;8366;51.020;7.642;2024-01-30T10:40:07;24.57;;;18.63;;
16506;SDS011;8366;51.020;7.642;2024-01-30T10:42:35;29.00;;;17.60;;
16506;SDS011;8366;51.020;7.642;2024-01-30T10:45:05;25.70;;;15.90;;
16506;SDS011;8366;51.020;7.642;2024-01-30T10:47:34;27.20;;;18.50;;
16506;SDS011;8366;51.020;7.642;2024-01-30T10:50:01;20.23;;;12.83;;
16506;SDS011;8366;51.020;7.642;2024-01-30T10:52:28;15.27;;;9.93;;
16506;SDS011;8366;51.020;7.642;2024-01-30T10:54:55;12.60;;;8.63;;
16506;SDS011;8366;51.020;7.642;2024-01-30T10:57:24;12.93;;;8.67;;
16506;SDS011;8366;51.020;7.642;2024-01-30T10:59:52;12.43;;;8.13;;
16506;SDS011;8366;51.020;7.642;2024-01-30T11:02:21;15.33;;;9.57;;
16506;SDS011;8366;51.020;7.642;2024-01-30T11:04:49;14.97;;;9.60;;
16506;SDS011;8366;51.020;7.642;2024-01-30T11:07:17;17.03;;;8.93;;
16506;SDS011;8366;51.020;7.642;2024-01-30T11:09:49;16.83;;;11.07;;
16506;SDS011;8366;51.020;7.642;2024-01-30T11:12:16;17.27;;;11.27;;
16506;SDS011;8366;51.020;7.642;2024-01-30T11:14:44;17.00;;;10.27;;
16506;SDS011;8366;51.020;7.642;2024-01-30T11:17:10;15.07;;;9.83;;
16506;SDS011;8366;51.020;7.642;2024-01-30T11:19:38;20.77;;;11.17;;
16506;SDS011;8366;51.020;7.642;2024-01-30T11:22:06;17.10;;;10.93;;
16506;SDS011;8366;51.020;7.642;2024-01-30T11:24:36;11.93;;;7.83;;
16506;SDS011;8366;51.020;7.642;2024-01-30T11:27:07;11.93;;;7.73;;
16506;SDS011;8366;51.020;7.642;2024-01-30T11:29:34;12.53;;;8.37;;
16506;SDS011;8366;51.020;7.642;2024-01-30T11:32:02;11.90;;;8.40;;
16506;SDS011;8366;51.020;7.642;2024-01-30T11:34:30;13.07;;;8.77;;
16506;SDS011;8366;51.020;7.642;2024-01-30T11:36:57;12.40;;;8.27;;
16506;SDS011;8366;51.020;7.642;2024-01-30T11:39:24;13.07;;;8.13;;
16506;SDS011;8366;51.020;7.642;2024-01-30T11:41:51;11.47;;;8.37;;
16506;SDS011;8366;51.020;7.642;2024-01-30T11:44:18;11.70;;;8.10;;
16506;SDS011;8366;51.020;7.642;2024-01-30T11:46:46;11.47;;;8.07;;
16506;SDS011;8366;51.020;7.642;2024-01-30T11:49:15;11.07;;;7.77;;
16506;SDS011;8366;51.020;7.642;2024-01-30T11:51:42;12.53;;;8.23;;
16506;SDS011;8366;51.020;7.642;2024-01-30T11:54:09;12.83;;;7.50;;
16506;SDS011;8366;51.020;7.642;2024-01-30T11:56:36;12.23;;;9.27;;
16506;SDS011;8366;51.020;7.642;2024-01-30T11:59:02;11.30;;;7.30;;
16506;SDS011;8366;51.020;7.642;2024-01-30T12:01:29;31.50;;;13.53;;
16506;SDS011;8366;51.020;7.642;2024-01-30T12:03:56;20.20;;;9.90;;
16506;SDS011;8366;51.020;7.642;2024-01-30T12:06:24;9.80;;;7.57;;
16506;SDS011;8366;51.020;7.642;2024-01-30T12:08:57;10.50;;;7.53;;
16506;SDS011;8366;51.020;7.642;2024-01-30T12:11:24;10.37;;;6.67;;
16506;SDS011;8366;51.020;7.642;2024-01-30T12:13:51;13.93;;;8.43;;
16506;SDS011;8366;51.020;7.642;2024-01-30T12:16:17;11.63;;;7.73;;
16506;SDS011;8366;51.020;7.642;2024-01-30T12:18:44;10.20;;;7.53;;
16506;SDS011;8366;51.020;7.642;2024-01-30T12:21:11;11.00;;;6.83;;
16506;SDS011;8366;51.020;7.642;2024-01-30T12:23:39;14.17;;;8.20;;
16506;SDS011;8366;51.020;7.642;2024-01-30T12:26:06;11.50;;;7.40;;
16506;SDS011;8366;51.020;7.642;2024-01-30T12:28:32;13.10;;;7.73;;
16506;SDS011;8366;51.020;7.642;2024-01-30T12:31:01;11.40;;;6.90;;
16506;SDS011;8366;51.020;7.642;2024-01-30T12:33:28;12.83;;;7.40;;
16506;SDS011;8366;51.020;7.642;2024-01-30T12:35:55;11.03;;;7.67;;
16506;SDS011;8366;51.020;7.642;2024-01-30T12:38:21;9.77;;;7.13;;
16506;SDS011;8366;51.020;7.642;2024-01-30T12:40:50;10.23;;;7.30;;
16506;SDS011;8366;51.020;7.642;2024-01-30T12:43:19;10.73;;;6.90;;
16506;SDS011;8366;51.020;7.642;2024-01-30T12:45:46;9.63;;;6.65;;
16506;SDS011;8366;51.020;7.642;2024-01-30T12:48:13;8.63;;;6.80;;
16506;SDS011;8366;51.020;7.642;2024-01-30T12:50:40;11.07;;;6.90;;
16506;SDS011;8366;51.020;7.642;2024-01-30T12:53:07;10.40;;;6.40;;
16506;SDS011;8366;51.020;7.642;2024-01-30T12:55:34;9.33;;;6.57;;
16506;SDS011;8366;51.020;7.642;2024-01-30T12:58:02;11.53;;;6.80;;
16506;SDS011;8366;51.020;7.642;2024-01-30T13:00:28;12.55;;;6.88;;
16506;SDS011;8366;51.020;7.642;2024-01-30T13:02:55;10.73;;;6.67;;
16506;SDS011;8366;51.020;7.642;2024-01-30T13:05:21;9.80;;;6.87;;
16506;SDS011;8366;51.020;7.642;2024-01-30T13:07:48;12.40;;;7.17;;
16506;SDS011;8366;51.020;7.642;2024-01-30T13:10:14;12.43;;;6.53;;
16506;SDS011;8366;51.020;7.642;2024-01-30T13:12:41;11.17;;;6.63;;
16506;SDS011;8366;51.020;7.642;2024-01-30T13:15:09;9.57;;;6.33;;
16506;SDS011;8366;51.020;7.642;2024-01-30T13:17:36;11.57;;;6.03;;
16506;SDS011;8366;51.020;7.642;2024-01-30T13:20:03;10.70;;;6.40;;
16506;SDS011;8366;51.020;7.642;2024-01-30T13:22:30;10.43;;;6.33;;
16506;SDS011;8366;51.020;7.642;2024-01-30T13:24:56;9.83;;;6.10;;
16506;SDS011;8366;51.020;7.642;2024-01-30T13:27:23;10.17;;;6.73;;
16506;SDS011;8366;51.020;7.642;2024-01-30T13:29:50;11.27;;;6.57;;
16506;SDS011;8366;51.020;7.642;2024-01-30T13:32:17;11.02;;;6.35;;
16506;SDS011;8366;51.020;7.642;2024-01-30T13:34:44;10.32;;;6.15;;
16506;SDS011;8366;51.020;7.642;2024-01-30T13:37:10;9.27;;;6.28;;
16506;SDS011;8366;51.020;7.642;2024-01-30T13:39:37;11.38;;;7.13;;
16506;SDS011;8366;51.020;7.642;2024-01-30T13:42:04;12.53;;;6.53;;
16506;SDS011;8366;51.020;7.642;2024-01-30T13:44:30;9.73;;;6.22;;
16506;SDS011;8366;51.020;7.642;2024-01-30T13:46:57;11.93;;;6.28;;
16506;SDS011;8366;51.020;7.642;2024-01-30T13:49:25;11.32;;;6.30;;
16506;SDS011;8366;51.020;7.642;2024-01-30T13:51:52;9.85;;;6.38;;
16506;SDS011;8366;51.020;7.642;2024-01-30T13:54:18;12.63;;;7.10;;
16506;SDS011;8366;51.020;7.642;2024-01-30T13:56:45;7.72;;;6.15;;
16506;SDS011;8366;51.020;7.642;2024-01-30T13:59:11;8.95;;;6.15;;
16506;SDS011;8366;51.020;7.642;2024-01-30T14:01:38;10.63;;;6.25;;
16506;SDS011;8366;51.020;7.642;2024-01-30T14:04:04;9.25;;;6.60;;
16506;SDS011;8366;51.020;7.642;2024-01-30T14:06:32;10.10;;;6.35;;
16506;SDS011;8366;51.020;7.642;2024-01-30T14:08:59;11.85;;;6.80;;
16506;SDS011;8366;51.020;7.642;2024-01-30T14:11:25;9.90;;;6.43;;
16506;SDS011;8366;51.020;7.642;2024-01-30T14:13:52;11.77;;;6.63;;
16506;SDS011;8366;51.020;7.642;2024-01-30T14:16:18;12.03;;;6.63;;
16506;SDS011;8366;51.020;7.642;2024-01-30T14:18:45;12.13;;;7.13;;
16506;SDS011;8366;51.020;7.642;2024-01-30T14:21:11;10.03;;;7.00;;
16506;SDS011;8366;51.020;7.642;2024-01-30T14:23:39;11.68;;;7.38;;
16506;SDS011;8366;51.020;7.642;2024-01-30T14:26:05;10.60;;;6.72;;
16506;SDS011;8366;51.020;7.642;2024-01-30T14:28:32;11.35;;;7.15;;
16506;SDS011;8366;51.020;7.642;2024-01-30T14:30:58;11.23;;;6.70;;
16506;SDS011;8366;51.020;7.642;2024-01-30T14:33:25;11.70;;;6.55;;
16506;SDS011;8366;51.020;7.642;2024-01-30T14:35:52;11.10;;;6.97;;
16506;SDS011;8366;51.020;7.642;2024-01-30T14:38:18;10.80;;;6.78;;